Huvudsida
METAR-TAF:

METAR-TAF

Flygplatser :

Mary, Turkmenistan

latitud: 37-36-24N, longitud: 061-54-05E, höjd: 222 m

Aktuellt väderrapport

Denna rapport gjordes för 39 minuter sedan, klockan 19:00 UTC
Vind 8 kt från ost/sydost
Temperatur 7°C
Fuktighet 81%
Tryck 1018 hPa
Sikt: 6000 m

METAR: UTAM 281900Z 11008KT 6000 NSC 07/04 Q1018 R88/CLRD70 NOSIG

Tid: 00:39 (19:39 UTC)

Väderprognos

Denna rapport gjordes för 2 timmar och 59 minuter sedan, klockan 16:40 UTC
Prognos gäller från 28 kl. 18 UTC till 29 kl. 18 UTC
Vind 14 kt från ost/sydost
Sikt: 5000 m
Brutna moln på en höjd av 5000 ft
Temporärt
från 28 kl. 19 UTC till 28 kl. 24 UTC
Sikt: 2000 m
fuktdis
Temporärt
från 29 kl. 00 UTC till 29 kl. 04 UTC
Sikt: 0600 m
på en höjd av 300 ft
dimma
Blir
från 29 kl. 04 UTC till 29 kl. 05 UTC
Vind 16 kt från syd/sydost i byarna ända upp till 26 kt

TAF: UTAM 281640Z 2818/2918 12014KT 5000 BKN050 TEMPO 2819/2824 2000 BR TEMPO 2900/2904 0600 FG VV003 BECMG 2904/2905 15016G26KT

Aktuella väderrapporter och prognoser från 4000 flygplatser (METAR- och TAF-rapporter).

De tillgängliga stationerna syns som gula och röda prickar på kartan.

För musen över prickarna för att se namnen på stationerna.

Klicka sedan för att få väderrapporter och prognoser.

För att ändra kartan: Klicka på de gröna knapparna med ett svart kors på för att zooma in; den gröna knappen med ett streck på för att zooma ut; eller på de gröna pilarna för angränsande kartor.


METAR-TAF: